Aviation Digital Data Service (ADDS)

Output produced by TAFs form (1507 UTC 19 August 2017)
found at http://www.aviationweather.gov/adds/tafs/
 
KPOU 191302Z 1913/2012 00000KT P6SM BKN010 
     TEMPO 1913/1915 SCT010 
     FM191500 25007KT P6SM FEW060 SCT250 
     FM200300 VRB03KT P6SM VCSH BKN080 OVC120 
     FM200700 00000KT 6SM BR FEW002 SCT250